Time;durP1;ratioP1;P1;durP2;ratioP2;P2;SDS_P1;SDS_P2;PMS_P1;PMS_P2;Temp;Humidity;BMP_temperature;BMP_pressure;BME280_temperature;BME280_humidity;BME280_pressure;Samples;Min_cycle;Max_cycle;Signal;HPM_P1;HPM_P2
2021/08/02 00:00:53;;;;;;;21.63;7.40;;;;;;;12.24;100.00;101194.78;5077975;28;20056;-61
2021/08/02 00:03:28;;;;;;;22.88;7.32;;;;;;;12.29;100.00;101193.00;5078989;28;20385;-60
2021/08/02 00:05:57;;;;;;;20.73;6.88;;;;;;;12.29;100.00;101193.00;5075147;28;20094;-61
2021/08/02 00:08:25;;;;;;;22.23;6.95;;;;;;;12.31;100.00;101188.63;5075189;28;20103;-60
2021/08/02 00:10:51;;;;;;;23.20;6.82;;;;;;;12.31;100.00;101186.84;5074672;28;20024;-60
2021/08/02 00:13:28;;;;;;;22.58;6.78;;;;;;;12.39;100.00;101194.78;5078701;28;20075;-60
2021/08/02 00:16:02;;;;;;;23.23;7.53;;;;;;;12.36;100.00;101192.13;5075155;28;20040;-62
2021/08/02 00:18:29;;;;;;;23.17;7.75;;;;;;;12.35;100.00;101193.03;5076185;28;20383;-62
2021/08/02 00:20:58;;;;;;;23.50;7.40;;;;;;;12.38;100.00;101199.22;5078843;28;20017;-62
2021/08/02 00:23:25;;;;;;;22.52;7.28;;;;;;;12.39;100.00;101194.78;5073790;28;20028;-60
2021/08/02 00:25:51;;;;;;;24.15;7.10;;;;;;;12.46;100.00;101203.66;5074782;28;20075;-60
2021/08/02 00:28:18;;;;;;;22.70;7.47;;;;;;;12.51;100.00;101199.28;5078827;28;20455;-60
2021/08/02 00:30:46;;;;;;;23.98;7.50;;;;;;;12.49;100.00;101198.34;5078631;28;20103;-60
2021/08/02 00:33:11;;;;;;;23.15;7.32;;;;;;;12.44;100.00;101214.25;5078809;28;20028;-61
2021/08/02 00:35:45;;;;;;;20.85;7.35;;;;;;;12.45;100.00;101210.75;5078615;28;20452;-60
2021/08/02 00:38:18;;;;;;;21.40;7.30;;;;;;;12.47;100.00;101208.97;5078445;28;20101;-60
2021/08/02 00:40:55;;;;;;;21.17;7.50;;;;;;;12.44;100.00;101211.63;5078731;28;20158;-60
2021/08/02 00:43:45;;;;;;;22.52;7.25;;;;;;;12.43;100.00;101217.78;5079807;28;20035;-64
2021/08/02 00:46:13;;;;;;;23.17;7.68;;;;;;;12.38;100.00;101212.47;5079998;28;20029;-69
2021/08/02 00:48:57;;;;;;;22.80;7.70;;;;;;;12.32;100.00;101211.56;5093835;28;20047;-64
2021/08/02 00:51:24;;;;;;;23.63;7.95;;;;;;;12.29;100.00;101206.25;5074869;28;20110;-71
2021/08/02 00:53:51;;;;;;;22.60;7.82;;;;;;;12.29;100.00;101214.22;5078419;28;20100;-67
2021/08/02 00:56:17;;;;;;;23.83;7.82;;;;;;;12.26;100.00;101214.19;5078353;28;20033;-64
2021/08/02 00:58:46;;;;;;;22.45;7.80;;;;;;;12.29;100.00;101219.50;5078491;28;20528;-67
2021/08/02 01:01:12;;;;;;;24.23;8.25;;;;;;;12.30;100.00;101206.25;5078219;28;20028;-63
2021/08/02 01:03:41;;;;;;;21.60;7.70;;;;;;;12.33;100.00;101216.91;5078303;28;20111;-67
2021/08/02 01:06:10;;;;;;;24.27;8.02;;;;;;;12.29;100.00;101211.56;5078266;28;20491;-69
2021/08/02 01:08:38;;;;;;;21.25;7.82;;;;;;;12.25;100.00;101218.63;5078448;28;20039;-65
2021/08/02 01:11:09;;;;;;;23.33;7.65;;;;;;;12.28;100.00;101217.75;5075720;28;20106;-66
2021/08/02 01:13:36;;;;;;;21.80;7.57;;;;;;;12.29;100.00;101207.16;5075070;28;20100;-74
2021/08/02 01:16:05;;;;;;;24.98;7.93;;;;;;;12.35;100.00;101204.53;5075284;28;20028;-65
2021/08/02 01:18:32;;;;;;;23.65;7.75;;;;;;;12.37;100.00;101201.88;5075220;28;20020;-66
2021/08/02 01:21:04;;;;;;;21.13;7.28;;;;;;;12.41;100.00;101203.66;5075248;28;20025;-66
2021/08/02 01:23:31;;;;;;;21.38;7.13;;;;;;;12.32;100.00;101200.97;5075139;28;20487;-91
2021/08/02 01:25:56;;;;;;;22.15;7.80;;;;;;;12.18;100.00;101203.59;5074855;28;20048;-78
2021/08/02 01:28:21;;;;;;;22.42;8.45;;;;;;;12.15;100.00;101201.81;5074757;28;20051;-62
2021/08/02 01:30:47;;;;;;;22.90;7.97;;;;;;;12.08;100.00;101204.44;5075261;28;20033;-60
2021/08/02 01:33:14;;;;;;;22.85;8.40;;;;;;;12.07;100.00;101206.19;5074753;28;20016;-60
2021/08/02 01:35:40;;;;;;;22.60;8.35;;;;;;;12.14;100.00;101210.63;5074716;28;20391;-60
2021/08/02 01:38:06;;;;;;;23.65;8.55;;;;;;;12.26;100.00;101203.59;5074856;28;20020;-61
2021/08/02 01:40:32;;;;;;;25.77;8.50;;;;;;;12.32;100.00;101198.31;5074863;28;20070;-60
2021/08/02 01:43:01;;;;;;;24.20;8.40;;;;;;;12.28;100.00;101208.03;5074430;28;20337;-60
2021/08/02 01:45:26;;;;;;;24.35;8.63;;;;;;;12.41;100.00;101200.09;5074598;28;20036;-60
2021/08/02 01:48:13;;;;;;;23.55;8.65;;;;;;;12.47;100.00;101206.31;5074475;28;20067;-60
2021/08/02 01:50:59;;;;;;;25.60;8.60;;;;;;;12.48;100.00;101216.06;5072949;28;20031;-61
2021/08/02 01:53:38;;;;;;;25.20;8.85;;;;;;;12.44;100.00;101216.03;5070776;28;20108;-62
2021/08/02 01:56:18;;;;;;;23.35;8.10;;;;;;;12.52;100.00;101216.94;5072118;28;20048;-60
2021/08/02 01:58:56;;;;;;;24.30;8.73;;;;;;;12.56;100.00;101216.06;5074676;28;20371;-61
2021/08/02 02:01:24;;;;;;;21.75;8.30;;;;;;;12.55;100.00;101223.13;5070248;28;20416;-60
2021/08/02 02:03:52;;;;;;;26.33;8.68;;;;;;;12.55;100.00;101217.84;5088820;28;20040;-61
2021/08/02 02:06:24;;;;;;;24.35;9.00;;;;;;;12.62;100.00;101217.84;5093726;28;20052;-62
2021/08/02 02:09:06;;;;;;;24.85;8.80;;;;;;;12.63;100.00;101212.53;5093658;28;20394;-61
2021/08/02 02:11:32;;;;;;;22.73;8.20;;;;;;;12.69;100.00;101209.00;5080064;28;20029;-60
2021/08/02 02:14:04;;;;;;;25.17;9.07;;;;;;;12.71;100.00;101212.53;5074070;28;20526;-60
2021/08/02 02:16:30;;;;;;;25.00;8.60;;;;;;;12.72;100.00;101217.84;5074111;28;20178;-60
2021/08/02 02:19:01;;;;;;;23.45;8.77;;;;;;;12.74;100.00;101212.53;5074017;28;20040;-61
2021/08/02 02:21:28;;;;;;;23.55;8.82;;;;;;;12.75;100.00;101205.47;5070351;28;20483;-61
2021/08/02 02:23:55;;;;;;;25.45;8.88;;;;;;;12.78;100.00;101214.31;5073898;28;20102;-62
2021/08/02 02:26:25;;;;;;;25.00;9.48;;;;;;;12.82;100.00;101216.09;5073619;28;20108;-61
2021/08/02 02:28:51;;;;;;;25.23;9.05;;;;;;;12.74;100.00;101215.19;5073838;28;20039;-62
2021/08/02 02:31:18;;;;;;;27.23;9.63;;;;;;;12.71;100.00;101213.44;5074054;28;20104;-61
2021/08/02 02:33:45;;;;;;;26.85;9.27;;;;;;;12.70;100.00;101214.31;5073475;28;20536;-63
2021/08/02 02:36:11;;;;;;;23.48;9.43;;;;;;;12.66;100.00;101211.66;5073671;28;20070;-61
2021/08/02 02:38:37;;;;;;;25.40;9.77;;;;;;;12.75;100.00;101203.72;5073660;28;20028;-64
2021/08/02 02:41:04;;;;;;;24.83;9.70;;;;;;;12.73;100.00;101205.50;5073407;28;20074;-66
2021/08/02 02:43:31;;;;;;;24.05;9.80;;;;;;;12.76;100.00;101197.53;5073304;28;20024;-66
2021/08/02 02:45:57;;;;;;;25.67;10.40;;;;;;;12.76;100.00;101192.22;5073846;28;20104;-68
2021/08/02 02:48:22;;;;;;;25.30;10.73;;;;;;;12.68;100.00;101201.94;5069099;28;20044;-68
2021/08/02 02:50:50;;;;;;;25.45;10.43;;;;;;;12.71;100.00;101201.94;5073428;28;20020;-65
2021/08/02 02:53:18;;;;;;;25.38;10.52;;;;;;;12.68;100.00;101201.94;5073311;28;20024;-70
2021/08/02 02:55:45;;;;;;;27.25;10.57;;;;;;;12.68;100.00;101201.94;5072993;28;20111;-68
2021/08/02 02:58:11;;;;;;;26.52;11.00;;;;;;;12.70;100.00;101201.06;5073453;28;20146;-68
2021/08/02 03:00:38;;;;;;;27.13;11.30;;;;;;;12.76;100.00;101205.47;5073200;28;20487;-69
2021/08/02 03:03:07;;;;;;;25.42;10.63;;;;;;;12.77;100.00;101214.31;5072750;28;20425;-71
2021/08/02 03:05:37;;;;;;;25.90;10.52;;;;;;;12.77;100.00;101207.25;5072793;28;20076;-69
2021/08/02 03:08:06;;;;;;;27.13;10.82;;;;;;;12.79;100.00;101218.75;5073065;28;20028;-68
2021/08/02 03:10:32;;;;;;;26.08;10.82;;;;;;;12.80;100.00;101220.53;5073351;28;20052;-68
2021/08/02 03:12:57;;;;;;;24.65;10.98;;;;;;;12.77;100.00;101216.97;5072859;28;20383;-68
2021/08/02 03:15:23;;;;;;;25.98;11.18;;;;;;;12.70;100.00;101216.09;5072880;28;20410;-68
2021/08/02 03:17:48;;;;;;;26.50;11.20;;;;;;;12.66;100.00;101219.63;5072807;28;20459;-69
2021/08/02 03:20:14;;;;;;;28.10;11.88;;;;;;;12.63;100.00;101224.94;5072571;28;20024;-68
2021/08/02 03:22:52;;;;;;;25.95;11.23;;;;;;;12.70;100.00;101221.41;5071639;28;20029;-70
2021/08/02 03:25:34;;;;;;;27.52;12.10;;;;;;;12.68;100.00;101217.84;5073138;28;20387;-67
2021/08/02 03:28:25;;;;;;;26.20;11.15;;;;;;;12.71;100.00;101212.53;5069689;28;20028;-68
2021/08/02 03:30:53;;;;;;;29.05;11.85;;;;;;;12.69;100.00;101230.22;5072674;28;20391;-69
2021/08/02 03:33:33;;;;;;;27.88;12.43;;;;;;;12.76;100.00;101226.72;5072321;28;20471;-69
2021/08/02 03:36:03;;;;;;;28.35;12.13;;;;;;;12.77;100.00;101220.53;5069088;28;20021;-71
2021/08/02 03:38:30;;;;;;;26.88;11.93;;;;;;;12.78;100.00;101222.28;5072788;28;20039;-72
2021/08/02 03:40:57;;;;;;;27.60;11.32;;;;;;;12.78;100.00;101222.28;5072539;28;20025;-69
2021/08/02 03:43:23;;;;;;;26.67;11.68;;;;;;;12.81;100.00;101224.06;5068606;28;20028;-69
2021/08/02 03:45:49;;;;;;;26.67;11.93;;;;;;;12.82;100.00;101228.50;5072590;28;20025;-69
2021/08/02 03:48:14;;;;;;;26.52;12.05;;;;;;;12.83;100.00;101225.84;5072883;28;20028;-69
2021/08/02 03:50:40;;;;;;;27.10;11.48;;;;;;;12.85;100.00;101221.41;5072826;28;20036;-70
2021/08/02 03:53:06;;;;;;;27.50;11.48;;;;;;;12.88;100.00;101231.13;5072433;28;20540;-73
2021/08/02 03:55:34;;;;;;;26.75;11.43;;;;;;;12.87;100.00;101227.63;5072518;28;20025;-72
2021/08/02 03:57:59;;;;;;;26.90;11.57;;;;;;;12.95;100.00;101229.38;5072242;28;20028;-70
2021/08/02 04:00:25;;;;;;;27.20;11.85;;;;;;;12.89;100.00;101230.25;5072617;28;20375;-69
2021/08/02 04:02:51;;;;;;;27.30;12.00;;;;;;;12.91;100.00;101232.00;5072889;28;20138;-69
2021/08/02 04:05:17;;;;;;;26.83;11.88;;;;;;;12.88;100.00;101237.31;5072152;28;20496;-69
2021/08/02 04:07:43;;;;;;;27.17;11.10;;;;;;;12.90;100.00;101240.88;5072127;28;20547;-68
2021/08/02 04:10:09;;;;;;;28.65;12.35;;;;;;;12.93;100.00;101244.41;5072140;28;20059;-66
2021/08/02 04:12:35;;;;;;;26.02;11.18;;;;;;;12.91;100.00;101237.31;5072364;28;20032;-69
2021/08/02 04:15:01;;;;;;;26.55;11.50;;;;;;;12.95;100.00;101245.31;5071972;28;20544;-67
2021/08/02 04:17:26;;;;;;;28.92;11.73;;;;;;;12.93;100.00;101249.72;5072379;28;20107;-65
2021/08/02 04:19:52;;;;;;;26.42;11.27;;;;;;;12.90;100.00;101250.59;5072314;28;20459;-70
2021/08/02 04:22:17;;;;;;;25.85;10.77;;;;;;;12.87;100.00;101251.50;5072273;28;20032;-68
2021/08/02 04:24:42;;;;;;;27.55;10.57;;;;;;;12.83;100.00;101254.09;5071872;28;20107;-68
2021/08/02 04:27:08;;;;;;;25.00;10.90;;;;;;;12.83;100.00;101254.09;5071871;28;20059;-68
2021/08/02 04:29:33;;;;;;;27.60;11.35;;;;;;;12.82;100.00;101250.59;5072418;28;20482;-68
2021/08/02 04:31:58;;;;;;;26.25;9.77;;;;;;;12.82;100.00;101258.53;5070309;28;20448;-67
2021/08/02 04:34:23;;;;;;;26.77;10.10;;;;;;;12.83;100.00;101262.97;5071940;28;20146;-68
2021/08/02 04:36:49;;;;;;;24.45;9.70;;;;;;;12.82;100.00;101258.53;5072247;28;20383;-69
2021/08/02 04:39:14;;;;;;;25.15;10.15;;;;;;;12.80;100.00;101267.38;5074328;28;20024;-68
2021/08/02 04:41:39;;;;;;;26.00;10.93;;;;;;;12.85;100.00;101263.84;5083613;28;20021;-65
2021/08/02 04:44:05;;;;;;;24.20;10.10;;;;;;;12.89;100.00;101262.97;5073983;28;20023;-66
2021/08/02 04:46:30;;;;;;;24.75;10.40;;;;;;;12.87;100.00;101259.44;5073090;28;20024;-66
2021/08/02 04:48:56;;;;;;;26.27;10.15;;;;;;;12.90;100.00;101264.75;5075637;28;20108;-66
2021/08/02 04:51:21;;;;;;;25.58;9.60;;;;;;;12.89;100.00;101270.06;5075733;28;20051;-69
2021/08/02 04:53:46;;;;;;;25.83;9.77;;;;;;;12.88;100.00;101273.59;5075444;28;20536;-68
2021/08/02 04:56:12;;;;;;;25.35;9.77;;;;;;;12.88;100.00;101263.84;5075784;28;20077;-65
2021/08/02 04:58:37;;;;;;;24.77;10.60;;;;;;;12.96;100.00;101279.81;5075380;28;20525;-72
2021/08/02 05:01:02;;;;;;;26.52;10.40;;;;;;;13.01;100.00;101279.81;5075459;28;20066;-70
2021/08/02 05:03:28;;;;;;;26.60;10.73;;;;;;;13.03;100.00;101285.97;5075528;28;20371;-65
2021/08/02 05:05:54;;;;;;;25.67;10.93;;;;;;;13.08;100.00;101287.75;5071075;28;20036;-65
2021/08/02 05:08:20;;;;;;;26.98;11.75;;;;;;;13.07;100.00;101279.81;5075229;28;20025;-77
2021/08/02 05:10:46;;;;;;;25.38;11.23;;;;;;;13.14;100.00;101286.03;5075524;28;20025;-64
2021/08/02 05:13:11;;;;;;;27.83;11.90;;;;;;;13.20;100.00;101283.34;5074993;28;20103;-67
2021/08/02 05:15:36;;;;;;;28.20;12.15;;;;;;;13.25;100.00;101282.47;5075007;28;20028;-65
2021/08/02 05:18:02;;;;;;;28.55;12.57;;;;;;;13.29;100.00;101285.13;5075539;28;20032;-68
2021/08/02 05:20:27;;;;;;;28.50;11.60;;;;;;;13.34;100.00;101278.97;5075070;28;20044;-69
2021/08/02 05:22:53;;;;;;;26.00;11.60;;;;;;;13.34;100.00;101278.97;5075008;28;20025;-66
2021/08/02 05:25:18;;;;;;;27.38;11.20;;;;;;;13.37;100.00;101278.09;5072982;28;20016;-65
2021/08/02 05:27:51;;;;;;;26.02;11.23;;;;;;;13.41;100.00;101275.44;5080742;28;20028;-63
2021/08/02 05:30:17;;;;;;;27.13;11.02;;;;;;;13.40;100.00;101270.13;5077455;28;20032;-64
2021/08/02 05:32:43;;;;;;;25.67;11.00;;;;;;;13.49;100.00;101277.19;5079027;28;20024;-65
2021/08/02 05:35:09;;;;;;;29.35;11.45;;;;;;;13.53;100.00;101285.16;5078342;28;20484;-65
2021/08/02 05:37:35;;;;;;;26.08;12.02;;;;;;;13.52;100.00;101283.38;5077211;28;20524;-63
2021/08/02 05:40:00;;;;;;;26.60;11.95;;;;;;;13.66;100.00;101290.44;5079985;28;20020;-63
2021/08/02 05:42:26;;;;;;;27.40;11.50;;;;;;;13.76;100.00;101295.75;5078265;28;20498;-63
2021/08/02 05:44:51;;;;;;;27.17;11.77;;;;;;;13.90;100.00;101289.53;5079853;28;20041;-65
2021/08/02 05:47:16;;;;;;;26.27;11.63;;;;;;;13.95;100.00;101282.44;5079776;28;20486;-63
2021/08/02 05:49:42;;;;;;;25.88;12.02;;;;;;;13.98;100.00;101289.50;5080708;28;20032;-64
2021/08/02 05:52:07;;;;;;;25.95;11.88;;;;;;;13.99;100.00;101291.28;5077486;28;20364;-63
2021/08/02 05:54:33;;;;;;;25.60;11.27;;;;;;;14.02;100.00;101284.16;5079010;28;20111;-63
2021/08/02 05:56:58;;;;;;;26.40;11.43;;;;;;;13.94;100.00;101294.81;5078300;28;20066;-63
2021/08/02 05:59:23;;;;;;;28.27;12.05;;;;;;;13.92;100.00;101301.94;5078432;28;20463;-64
2021/08/02 06:01:49;;;;;;;27.20;11.63;;;;;;;13.91;100.00;101297.50;5079193;28;20024;-63
2021/08/02 06:04:15;;;;;;;28.25;11.80;;;;;;;13.98;100.00;101292.16;5080017;28;20118;-63
2021/08/02 06:06:42;;;;;;;26.17;10.88;;;;;;;14.17;100.00;101296.53;5075942;28;20064;-64
2021/08/02 06:09:10;;;;;;;25.70;11.55;;;;;;;14.27;100.00;101306.25;5074009;28;20519;-63
2021/08/02 06:11:36;;;;;;;25.15;10.82;;;;;;;14.35;100.00;101308.00;5077350;28;20154;-65
2021/08/02 06:14:01;;;;;;;24.30;10.07;;;;;;;14.39;100.00;101300.00;5077118;28;20090;-64
2021/08/02 06:16:26;;;;;;;25.10;10.65;;;;;;;14.51;100.00;101303.50;5078124;28;20052;-64
2021/08/02 06:18:52;;;;;;;26.85;11.38;;;;;;;14.51;100.00;101303.50;5080693;28;20025;-63
2021/08/02 06:21:17;;;;;;;24.77;10.45;;;;;;;14.60;99.18;101309.63;5081834;28;20029;-64
2021/08/02 06:23:42;;;;;;;25.65;10.32;;;;;;;14.68;99.90;101308.75;5078131;28;20025;-63
2021/08/02 06:26:08;;;;;;;23.50;9.38;;;;;;;14.76;95.56;101305.16;5079083;28;20025;-63
2021/08/02 06:28:33;;;;;;;24.05;9.80;;;;;;;14.82;96.63;101306.91;5076913;28;20386;-63
2021/08/02 06:31:01;;;;;;;25.63;10.07;;;;;;;14.88;95.58;101305.97;5078276;28;20024;-61
2021/08/02 06:33:26;;;;;;;25.65;10.00;;;;;;;14.93;96.44;101307.72;5077345;28;20021;-62
2021/08/02 06:35:52;;;;;;;22.42;8.98;;;;;;;15.00;94.49;101308.59;5079766;28;20427;-63
2021/08/02 06:38:17;;;;;;;23.20;8.43;;;;;;;15.08;92.60;101309.41;5076758;28;20029;-62
2021/08/02 06:40:44;;;;;;;25.38;8.98;;;;;;;15.04;92.03;101314.75;5078396;28;20032;-62
2021/08/02 06:43:09;;;;;;;25.17;8.40;;;;;;;14.89;87.38;101316.63;5076953;28;20471;-63
2021/08/02 06:45:35;;;;;;;23.77;8.60;;;;;;;14.82;91.47;101320.22;5079874;28;20020;-63
2021/08/02 06:48:00;;;;;;;22.85;8.60;;;;;;;14.78;90.18;101321.13;5076064;28;20036;-63
2021/08/02 06:50:26;;;;;;;23.20;8.65;;;;;;;14.75;88.94;101318.47;5078220;28;20035;-61
2021/08/02 06:52:52;;;;;;;23.25;9.00;;;;;;;14.78;90.56;101323.78;5076722;28;20020;-63
2021/08/02 06:55:18;;;;;;;22.10;8.02;;;;;;;14.72;88.34;101315.84;5078234;28;20020;-61
2021/08/02 06:57:43;;;;;;;21.95;8.38;;;;;;;14.71;91.13;101322.03;5078177;28;20355;-61
2021/08/02 07:00:09;;;;;;;23.45;8.68;;;;;;;14.70;90.96;101322.94;5079790;28;20471;-60
2021/08/02 07:02:35;;;;;;;22.80;8.15;;;;;;;14.76;93.67;101328.22;5082939;28;20032;-61
2021/08/02 07:05:00;;;;;;;23.38;6.80;;;;;;;14.73;88.79;101318.47;5078237;28;20041;-61
2021/08/02 07:07:25;;;;;;;20.35;6.40;;;;;;;14.77;90.81;101322.03;5078741;28;20081;-61
2021/08/02 07:09:51;;;;;;;22.15;8.18;;;;;;;14.80;93.16;101327.31;5073269;28;20149;-61
2021/08/02 07:12:16;;;;;;;22.67;7.43;;;;;;;14.83;90.52;101332.63;5075652;28;20031;-60
2021/08/02 07:14:41;;;;;;;21.80;7.03;;;;;;;14.77;91.64;101325.56;5079304;28;20040;-61
2021/08/02 07:17:06;;;;;;;22.17;7.07;;;;;;;14.85;90.77;101330.84;5068269;28;20032;-61
2021/08/02 07:19:32;;;;;;;21.20;7.07;;;;;;;15.00;91.16;101324.56;5072688;28;20033;-61
2021/08/02 07:21:57;;;;;;;21.55;6.70;;;;;;;15.15;88.20;101328.88;5070103;28;20017;-62
2021/08/02 07:24:22;;;;;;;21.02;5.82;;;;;;;15.32;86.69;101332.31;5071989;28;20426;-61
2021/08/02 07:26:48;;;;;;;21.40;5.88;;;;;;;15.52;83.95;101334.81;5067160;28;20025;-61
2021/08/02 07:29:13;;;;;;;20.75;4.97;;;;;;;15.68;79.97;101334.66;5071301;28;20040;-61
2021/08/02 07:31:38;;;;;;;19.30;4.70;;;;;;;15.73;80.42;101337.28;5074640;28;20023;-61
2021/08/02 07:34:04;;;;;;;21.83;5.78;;;;;;;15.81;80.94;101330.16;5067092;28;20078;-61
2021/08/02 07:36:29;;;;;;;21.10;5.13;;;;;;;15.97;83.41;101323.75;5072199;28;20078;-63
2021/08/02 07:38:55;;;;;;;19.77;4.95;;;;;;;16.07;81.73;101332.53;5067909;28;20374;-62
2021/08/02 07:41:20;;;;;;;19.33;4.25;;;;;;;16.22;77.54;101336.81;5073948;28;20082;-62
2021/08/02 07:43:45;;;;;;;20.73;4.53;;;;;;;16.52;77.49;101334.72;5071389;28;20020;-63
2021/08/02 07:46:12;;;;;;;18.27;4.60;;;;;;;16.59;74.85;101335.53;5071936;28;20032;-70
2021/08/02 07:48:38;;;;;;;18.85;4.35;;;;;;;16.87;75.28;101331.59;5070584;28;20028;-69
2021/08/02 07:51:03;;;;;;;14.25;3.80;;;;;;;16.98;70.82;101330.53;5065218;28;20039;-70
2021/08/02 07:53:29;;;;;;;15.50;3.88;;;;;;;17.14;70.32;101333.88;5072296;28;20067;-63
2021/08/02 07:55:54;;;;;;;13.45;3.42;;;;;;;17.26;69.56;101333.69;5074329;28;20445;-68
2021/08/02 07:58:19;;;;;;;16.67;3.50;;;;;;;17.25;69.22;101326.59;5074435;28;20445;-69
2021/08/02 08:00:45;;;;;;;15.45;3.30;;;;;;;17.42;67.46;101337.88;5074508;28;20526;-60
2021/08/02 08:03:12;;;;;;;17.77;3.85;;;;;;;17.36;67.85;101331.78;5070850;28;20032;-60
2021/08/02 08:05:38;;;;;;;15.02;3.63;;;;;;;17.34;69.34;101336.25;5067710;28;20044;-60
2021/08/02 08:08:03;;;;;;;18.25;4.50;;;;;;;17.30;70.76;101338.09;5072252;28;20040;-61
2021/08/02 08:10:29;;;;;;;16.75;4.20;;;;;;;17.31;67.64;101339.84;5073063;28;20017;-61
2021/08/02 08:12:55;;;;;;;15.30;4.00;;;;;;;17.49;68.34;101340.44;5074591;28;20110;-61
2021/08/02 08:15:22;;;;;;;12.90;3.70;;;;;;;17.85;66.10;101343.41;5077590;28;20027;-60
2021/08/02 08:17:48;;;;;;;15.05;3.85;;;;;;;18.06;64.38;101342.16;5068219;28;20115;-60
2021/08/02 08:20:16;;;;;;;18.52;3.72;;;;;;;18.29;63.98;101333.69;5066140;28;20035;-61
2021/08/02 08:22:42;;;;;;;18.23;3.90;;;;;;;18.30;65.49;101332.75;5069597;28;20020;-63
2021/08/02 08:25:08;;;;;;;16.33;4.10;;;;;;;17.96;66.41;101344.13;5072795;28;20493;-60
2021/08/02 08:27:34;;;;;;;15.35;3.85;;;;;;;17.72;66.76;101337.38;5068015;28;20024;-61
2021/08/02 08:29:59;;;;;;;16.52;3.50;;;;;;;17.60;66.81;101338.47;5076757;28;20025;-62
2021/08/02 08:32:24;;;;;;;17.33;3.55;;;;;;;17.36;67.24;101331.78;5072428;28;20471;-63
2021/08/02 08:34:51;;;;;;;20.30;4.03;;;;;;;17.60;64.99;101334.03;5072692;28;20013;-61
2021/08/02 08:37:17;;;;;;;14.70;3.45;;;;;;;18.37;62.33;101337.09;5074867;28;20039;-61
2021/08/02 08:39:42;;;;;;;13.68;3.40;;;;;;;18.96;59.72;101330.50;5076231;28;20024;-61
2021/08/02 08:42:08;;;;;;;11.30;3.00;;;;;;;19.01;57.64;101333.97;5072503;28;20468;-61
2021/08/02 08:44:34;;;;;;;13.95;2.90;;;;;;;18.56;57.02;101329.56;5077938;28;20035;-61
2021/08/02 08:47:00;;;;;;;12.23;3.70;;;;;;;18.63;61.11;101333.00;5072744;28;20475;-61
2021/08/02 08:49:25;;;;;;;13.20;3.10;;;;;;;18.60;56.46;101330.38;5083112;28;20466;-61
2021/08/02 08:51:53;;;;;;;14.07;3.25;;;;;;;18.67;60.22;101324.00;5080980;28;20016;-61
2021/08/02 08:54:18;;;;;;;12.15;3.30;;;;;;;18.98;59.21;101324.19;5080364;28;20090;-61
2021/08/02 08:56:44;;;;;;;11.55;3.20;;;;;;;19.12;58.94;101331.94;5081507;28;20016;-60
2021/08/02 08:59:13;;;;;;;12.60;3.38;;;;;;;19.14;56.46;101338.13;5071348;28;20024;-60
2021/08/02 09:01:40;;;;;;;15.57;3.63;;;;;;;19.29;55.96;101339.53;5069341;28;20436;-60
2021/08/02 09:04:06;;;;;;;15.45;3.50;;;;;;;19.74;56.76;101337.56;5076077;28;20038;-61
2021/08/02 09:06:33;;;;;;;14.70;3.70;;;;;;;19.93;56.06;101340.66;5069556;28;20132;-61
2021/08/02 09:08:58;;;;;;;11.80;3.00;;;;;;;19.94;56.53;101337.94;5068312;28;20428;-61
2021/08/02 09:11:27;;;;;;;12.93;3.08;;;;;;;19.81;56.42;101341.88;5069994;28;20055;-62
2021/08/02 09:13:54;;;;;;;13.23;3.15;;;;;;;19.79;56.74;101343.69;5068021;28;20562;-61
2021/08/02 09:16:27;;;;;;;11.32;2.90;;;;;;;19.63;57.25;101345.88;5068287;28;20119;-62
2021/08/02 09:19:08;;;;;;;15.02;3.30;;;;;;;19.61;58.09;101345.03;5068065;28;20031;-62
2021/08/02 09:21:45;;;;;;;14.75;3.17;;;;;;;19.62;57.09;101345.00;5065525;28;20024;-61
2021/08/02 09:24:11;;;;;;;13.10;3.28;;;;;;;19.55;55.72;101339.84;5067569;28;20035;-61
2021/08/02 09:26:40;;;;;;;13.18;3.08;;;;;;;19.75;55.86;101342.88;5069276;28;20012;-61
2021/08/02 09:29:07;;;;;;;15.68;3.22;;;;;;;20.38;53.90;101335.81;5069110;28;20052;-62
2021/08/02 09:31:38;;;;;;;13.30;3.40;;;;;;;20.65;53.77;101343.09;5070083;28;20056;-61
2021/08/02 09:34:08;;;;;;;13.25;3.00;;;;;;;21.21;53.38;101335.13;5070259;28;20025;-61
2021/08/02 09:36:57;;;;;;;11.82;3.00;;;;;;;21.66;52.00;101346.25;5068130;28;20063;-61
2021/08/02 09:39:31;;;;;;;11.30;3.20;;;;;;;22.02;48.05;101336.00;5066538;28;20020;-62
2021/08/02 09:42:05;;;;;;;13.85;3.30;;;;;;;22.26;47.95;101331.53;5071355;28;20372;-61
2021/08/02 09:44:30;;;;;;;11.50;3.03;;;;;;;22.55;46.46;101331.44;5073648;28;20118;-61
2021/08/02 09:47:09;;;;;;;13.10;3.28;;;;;;;22.80;47.08;101332.25;5073771;28;20490;-61
2021/08/02 09:49:48;;;;;;;11.23;3.28;;;;;;;22.74;46.65;101336.97;5071123;28;20055;-61
2021/08/02 09:52:15;;;;;;;14.77;3.30;;;;;;;22.72;45.65;101328.09;5070684;28;20021;-61
2021/08/02 09:54:40;;;;;;;13.32;3.15;;;;;;;22.53;46.30;101334.19;5075945;28;20051;-64
2021/08/02 09:57:07;;;;;;;15.15;3.22;;;;;;;22.07;45.65;101330.47;5073574;28;20028;-61
2021/08/02 09:59:34;;;;;;;15.88;3.60;;;;;;;22.21;46.37;101332.66;5079702;28;20016;-61
2021/08/02 10:02:00;;;;;;;14.30;3.20;;;;;;;22.18;46.90;101332.75;5077896;28;20463;-61
2021/08/02 10:04:29;;;;;;;12.43;2.80;;;;;;;22.37;45.79;101327.63;5082300;28;20027;-61
2021/08/02 10:06:55;;;;;;;9.95;3.03;;;;;;;22.68;45.81;101332.72;5078706;28;20032;-63
2021/08/02 10:09:21;;;;;;;13.27;3.30;;;;;;;22.31;44.64;101338.56;5070989;28;20020;-61
2021/08/02 10:11:46;;;;;;;14.80;3.08;;;;;;;21.87;45.34;101334.75;5075338;28;20349;-61
2021/08/02 10:14:13;;;;;;;14.45;3.00;;;;;;;22.15;44.73;101339.16;5070951;28;20036;-61
2021/08/02 10:16:42;;;;;;;10.38;3.00;;;;;;;22.44;42.61;101329.13;5071855;28;20047;-61
2021/08/02 10:19:09;;;;;;;11.77;3.17;;;;;;;22.62;45.23;101328.44;5076113;28;20395;-61
2021/08/02 10:21:40;;;;;;;12.00;3.03;;;;;;;22.77;44.85;101331.47;5077983;28;20025;-65
2021/08/02 10:24:08;;;;;;;11.98;2.95;;;;;;;22.72;44.01;101328.09;5072999;28;20033;-61
2021/08/02 10:26:33;;;;;;;16.25;3.13;;;;;;;23.03;44.59;101332.25;5071734;28;20029;-61
2021/08/02 10:29:08;;;;;;;13.90;3.03;;;;;;;23.90;42.54;101330.47;5068975;28;20043;-61
2021/08/02 10:31:47;;;;;;;15.20;3.30;;;;;;;24.15;42.77;101330.25;5069525;28;20028;-61
2021/08/02 10:34:21;;;;;;;13.02;3.30;;;;;;;24.52;42.28;101327.69;5067778;28;20471;-62
2021/08/02 10:37:00;;;;;;;16.77;3.70;;;;;;;24.76;39.68;101322.13;5066882;28;20032;-61
2021/08/02 10:39:28;;;;;;;12.25;3.40;;;;;;;25.48;38.91;101331.25;5067230;28;20476;-61
2021/08/02 10:42:04;;;;;;;12.65;3.40;;;;;;;26.32;37.43;101334.09;5067690;28;20101;-61
2021/08/02 10:44:29;;;;;;;12.65;3.80;;;;;;;26.11;36.61;101336.16;5064427;28;20371;-61
2021/08/02 10:47:03;;;;;;;15.82;3.80;;;;;;;25.60;37.65;101329.75;5070230;28;20023;-61
2021/08/02 10:49:29;;;;;;;13.43;3.67;;;;;;;24.93;37.75;101318.59;5065815;28;20032;-61
2021/08/02 10:51:55;;;;;;;14.60;3.80;;;;;;;24.51;40.79;101320.56;5068233;28;20453;-61
2021/08/02 10:54:22;;;;;;;14.93;3.88;;;;;;;23.77;42.67;101323.84;5066370;28;20033;-61
2021/08/02 10:56:48;;;;;;;14.80;3.72;;;;;;;23.24;43.05;101323.34;5069800;28;20028;-75
2021/08/02 10:59:21;;;;;;;17.55;3.92;;;;;;;23.42;42.76;101327.09;5070689;28;20111;-66
2021/08/02 11:01:52;;;;;;;12.15;3.60;;;;;;;25.57;39.35;101322.66;5071292;28;20020;-85
2021/08/02 11:04:19;;;;;;;12.90;3.47;;;;;;;26.92;35.77;101319.94;5069889;28;20042;-76
2021/08/02 11:06:46;;;;;;;14.88;3.60;;;;;;;26.55;35.14;101321.13;5069451;28;20043;-78
2021/08/02 11:09:12;;;;;;;16.45;3.80;;;;;;;25.84;35.58;101324.91;5068656;28;20029;-76
2021/08/02 11:11:38;;;;;;;13.63;3.70;;;;;;;25.13;37.98;101328.44;5071688;28;20017;-69